Terminal Aerodrome Forecast
Issued by NWS Cleveland, OH

Home | Current Version | Previous Version | Text Only | Print | Product List | Glossary On
Versions: 1 2 3 4 5 6 7 8 9 10 11 12 13 14 15 16 17 18
000
FTUS41 KCLE 301100
TAFERI
TAF
KERI 301120Z 3012/3112 25015G25KT P6SM BKN045
     FM301300 26015G25KT P6SM SCT045
     FM302000 26014G22KT P6SM VCSH SCT035 OVC060
     FM310200 20004KT P6SM OVC120
     FM310400 21006KT P6SM OVC035
     FM310800 18008KT 5SM -SHRASN OVC035=

USA.gov is the U.S. government's official web portal to all federal, state and local government web resources and services.